Time;durP1;ratioP1;P1;durP2;ratioP2;P2;SDS_P1;SDS_P2;PMS_P1;PMS_P2;Temp;Humidity;BMP_temperature;BMP_pressure;BME280_temperature;BME280_humidity;BME280_pressure;Samples;Min_cycle;Max_cycle;Signal;HPM_P1;HPM_P2
2022/08/11 00:01:18;;;;;;;;;;;;;;;24.30;35.61;100054.91;4397316;32;32820;-76
2022/08/11 00:03:47;;;;;;;;;;;;;;;24.20;36.14;100055.50;4398784;32;34124;-78
2022/08/11 00:06:16;;;;;;;;;;;;;;;24.16;36.25;100054.00;4400823;32;34314;-79
2022/08/11 00:08:44;;;;;;;;;;;;;;;24.00;36.55;100045.31;4397539;32;33826;-78
2022/08/11 00:11:15;;;;;;;;;;;;;;;24.02;36.17;100043.44;4389308;32;32941;-77
2022/08/11 00:13:45;;;;;;;;;;;;;;;23.89;36.68;100038.03;4401821;32;34028;-79
2022/08/11 00:16:15;;;;;;;;;;;;;;;24.01;36.25;100045.22;4400711;32;34619;-77
2022/08/11 00:18:45;;;;;;;;;;;;;;;24.02;36.60;100041.63;4401100;32;33954;-78
2022/08/11 00:21:16;;;;;;;;;;;;;;;24.06;36.28;100032.50;4401097;32;33597;-78
2022/08/11 00:23:45;;;;;;;;;;;;;;;24.01;36.41;100034.59;4399598;32;33446;-78
2022/08/11 00:26:14;;;;;;;;;;;;;;;23.84;37.41;100029.53;4404829;32;34013;-77
2022/08/11 00:28:42;;;;;;;;;;;;;;;23.56;38.17;100033.03;4400280;32;34409;-77
2022/08/11 00:31:20;;;;;;;;;;;;;;;23.90;37.51;100030.97;4399765;32;32955;-78
2022/08/11 00:33:50;;;;;;;;;;;;;;;23.50;38.61;100038.69;4391093;32;33758;-78
2022/08/11 00:36:19;;;;;;;;;;;;;;;23.72;37.73;100028.47;4393629;32;35031;-80
2022/08/11 00:38:53;;;;;;;;;;;;;;;23.68;38.13;100034.91;4396276;32;34140;-78
2022/08/11 00:41:28;;;;;;;;;;;;;;;23.72;37.79;100025.81;4404649;32;32749;-79
2022/08/11 00:44:05;;;;;;;;;;;;;;;23.47;38.61;100029.12;4395658;32;34769;-77
2022/08/11 00:46:35;;;;;;;;;;;;;;;23.62;37.59;100028.19;4398330;32;35050;-78
2022/08/11 00:49:11;;;;;;;;;;;;;;;23.42;38.39;100029.41;4399033;32;33052;-79
2022/08/11 00:51:57;;;;;;;;;;;;;;;23.59;37.39;100025.72;4401053;32;33332;-80
2022/08/11 00:54:43;;;;;;;;;;;;;;;23.24;38.00;100027.88;4401853;32;33566;-78
2022/08/11 00:57:25;;;;;;;;;;;;;;;23.62;37.68;100025.53;4403287;32;35076;-79
2022/08/11 01:00:06;;;;;;;;;;;;;;;23.22;37.63;100021.84;4390772;32;32263;-80
2022/08/11 01:02:39;;;;;;;;;;;;;;;23.25;38.13;100024.31;4400901;32;33899;-77
2022/08/11 01:08:30;;;;;;;;;;;;;;;24.34;36.86;100021.94;4501144;31;919410;-78
2022/08/11 01:11:34;;;;;;;;;;;;;;;24.34;36.86;100021.94;4520562;31;32459;-80
2022/08/11 01:14:17;;;;;;;;;;;;;;;23.54;37.34;100019.03;4519330;31;33587;-80
2022/08/11 01:17:26;;;;;;;;;;;;;;;23.77;37.12;100022.91;4515323;31;34717;-79
2022/08/11 01:20:10;;;;;;;;;;;;;;;23.93;36.64;100021.00;4493729;31;34168;-78
2022/08/11 01:23:18;;;;;;;;;;;;;;;23.85;37.29;100020.66;4506607;31;32703;-79
2022/08/11 01:25:53;;;;;;;;;;;;;;;23.69;37.44;100018.06;4515442;31;35392;-78
2022/08/11 01:28:41;;;;;;;;;;;;;;;23.89;36.95;100019.47;4511659;31;34186;-77
2022/08/11 01:31:44;;;;;;;;;;;;;;;23.78;36.96;100022.81;4485684;31;34506;-79
2022/08/11 01:34:36;;;;;;;;;;;;;;;23.76;37.05;100016.75;4495749;31;33215;-78
2022/08/11 01:37:36;;;;;;;;;;;;;;;23.71;37.39;100012.69;4505536;31;33893;-79
2022/08/11 01:40:24;;;;;;;;;;;;;;;23.63;37.40;100011.38;4434408;32;34841;-78
2022/08/11 01:45:51;;;;;;;;;;;;;;;23.98;37.32;100012.75;4430298;32;33684;-79
2022/08/11 01:48:25;;;;;;;;;;;;;;;23.74;37.78;100016.00;4434749;32;34565;-78
2022/08/11 01:51:14;;;;;;;;;;;;;;;23.52;37.64;100012.97;4432531;32;34072;-80
2022/08/11 01:53:52;;;;;;;;;;;;;;;24.10;36.24;100014.63;4427477;32;33319;-78
2022/08/11 01:56:37;;;;;;;;;;;;;;;24.03;36.85;100013.31;4438458;32;33706;-78
2022/08/11 01:59:14;;;;;;;;;;;;;;;24.11;36.80;100015.47;4433702;32;33698;-78
2022/08/11 02:01:58;;;;;;;;;;;;;;;23.98;37.00;100012.75;4443876;32;33944;-80
2022/08/11 02:04:32;;;;;;;;;;;;;;;23.79;38.03;100013.06;4437921;32;33656;-78
2022/08/11 02:07:03;;;;;;;;;;;;;;;24.23;36.54;100006.72;4428204;32;33434;-80
2022/08/11 02:09:45;;;;;;;;;;;;;;;23.72;38.38;100006.41;4441097;32;33997;-79
2022/08/11 02:12:25;;;;;;;;;;;;;;;23.67;38.16;100003.22;4430300;32;33709;-78
2022/08/11 02:15:05;;;;;;;;;;;;;;;23.78;37.70;100004.28;4473638;31;33966;-78
2022/08/11 02:17:40;;;;;;;;;;;;;;;23.77;37.87;100004.38;4504288;31;33343;-79
2022/08/11 02:26:16;;;;;;;;;;;;;;;23.65;38.28;100005.94;4489443;31;33724;-78
2022/08/11 02:28:54;;;;;;;;;;;;;;;23.49;38.10;100000.78;4482863;32;33727;-80
2022/08/11 02:34:41;;;;;;;;;;;;;;;23.53;38.16;99999.63;4484638;31;34311;-78
2022/08/11 02:37:16;;;;;;;;;;;;;;;23.50;38.28;99991.03;4490471;31;34025;-78
2022/08/11 02:40:09;;;;;;;;;;;;;;;23.60;37.54;99993.00;4485043;31;33036;-80
2022/08/11 02:42:41;;;;;;;;;;;;;;;23.64;37.70;99986.56;4479284;31;34743;-79
2022/08/11 02:45:18;;;;;;;;;;;;;;;23.65;37.19;99990.06;4490150;31;34054;-79
2022/08/11 02:50:37;;;;;;;;;;;;;;;23.29;38.50;99978.16;4505405;31;33067;-77
2022/08/11 02:53:12;;;;;;;;;;;;;;;23.29;38.99;99979.94;4481681;31;34147;-77
2022/08/11 02:55:47;;;;;;;;;;;;;;;23.45;38.30;99986.00;4491798;31;34712;-78
2022/08/11 02:58:34;;;;;;;;;;;;;;;22.96;39.39;99983.69;4493844;31;33496;-79
2022/08/11 03:01:10;;;;;;;;;;;;;;;22.92;38.71;99985.66;4492647;31;33001;-78
2022/08/11 03:03:50;;;;;;;;;;;;;;;23.46;37.96;99978.91;4496750;31;34041;-78
2022/08/11 03:06:31;;;;;;;;;;;;;;;23.15;38.97;99986.94;4492383;31;34658;-78
2022/08/11 03:09:04;;;;;;;;;;;;;;;23.26;39.01;99982.78;4477432;32;34598;-78
2022/08/11 03:17:21;;;;;;;;;;;;;;;22.97;39.71;99998.59;4482306;31;34139;-79
2022/08/11 03:19:54;;;;;;;;;;;;;;;23.28;39.29;100002.94;4493216;31;33801;-76
2022/08/11 03:22:23;;;;;;;;;;;;;;;23.61;37.33;99994.72;4490872;31;32964;-79
2022/08/11 03:24:54;;;;;;;;;;;;;;;23.29;38.43;99994.03;4485348;31;34293;-78
2022/08/11 03:27:27;;;;;;;;;;;;;;;22.99;39.52;99996.75;4492918;31;33903;-78
2022/08/11 03:30:01;;;;;;;;;;;;;;;23.42;37.62;99995.00;4502745;31;34577;-80
2022/08/11 03:32:30;;;;;;;;;;;;;;;22.95;39.18;99993.44;4496073;31;32766;-79
2022/08/11 03:35:00;;;;;;;;;;;;;;;22.86;39.68;99999.25;4486163;31;33572;-78
2022/08/11 03:37:49;;;;;;;;;;;;;;;23.32;39.01;99999.16;4495730;31;34918;-80
2022/08/11 03:43:12;;;;;;;;;;;;;;;23.15;39.01;99999.34;4483090;31;33584;-78
2022/08/11 03:45:44;;;;;;;;;;;;;;;23.25;38.03;99997.00;4484151;31;34135;-78
2022/08/11 03:48:14;;;;;;;;;;;;;;;22.75;39.22;99989.28;4496403;31;33349;-78
2022/08/11 03:50:52;;;;;;;;;;;;;;;23.05;38.61;99996.41;4484913;31;33775;-78
2022/08/11 03:53:33;;;;;;;;;;;;;;;22.75;40.08;99991.94;4489358;31;33463;-77
2022/08/11 03:56:12;;;;;;;;;;;;;;;22.85;39.49;100000.19;4498780;31;34136;-79
2022/08/11 03:58:47;;;;;;;;;;;;;;;22.64;39.68;99996.16;4499626;31;35384;-79
2022/08/11 04:01:33;;;;;;;;;;;;;;;22.61;40.02;99998.97;4492380;31;33932;-78
2022/08/11 04:04:20;;;;;;;;;;;;;;;22.46;40.05;99993.63;4491403;31;33466;-78
2022/08/11 04:10:02;;;;;;;;;;;;;;;23.74;37.92;99994.81;4471451;31;957245;-79
2022/08/11 04:12:36;;;;;;;;;;;;;;;23.74;37.92;99994.81;4486326;32;32881;-80
2022/08/11 04:18:06;;;;;;;;;;;;;;;23.05;38.91;99996.41;4495029;31;34780;-78
2022/08/11 04:20:51;;;;;;;;;;;;;;;23.39;38.55;99997.84;4496111;31;33887;-77
2022/08/11 04:23:25;;;;;;;;;;;;;;;23.46;38.18;99992.16;4489492;31;33212;-78
2022/08/11 04:26:31;;;;;;;;;;;;;;;23.88;37.12;99995.75;4489798;32;34435;-80
2022/08/11 04:29:04;;;;;;;;;;;;;;;23.61;37.43;100000.00;4480852;31;34007;-78
2022/08/11 04:31:38;;;;;;;;;;;;;;;23.72;36.97;100007.28;4499576;31;33861;-79
2022/08/11 04:34:26;;;;;;;;;;;;;;;23.55;37.07;100002.19;4496806;31;33344;-80
2022/08/11 04:40:09;;;;;;;;;;;;;;;23.55;38.54;100004.81;4488133;32;34439;-78
2022/08/11 04:45:45;;;;;;;;;;;;;;;23.83;38.37;100011.94;4423210;32;33496;-78
2022/08/11 05:03:09;;;;;;;;;;;;;;;23.39;38.90;100015.53;4351302;32;34686;-80
2022/08/11 05:05:52;;;;;;;;;;;;;;;23.88;38.77;100016.94;4338214;32;34519;-79
2022/08/11 05:08:51;;;;;;;;;;;;;;;23.93;39.12;100014.84;4337409;32;33721;-81
2022/08/11 05:11:38;;;;;;;;;;;;;;;24.14;37.39;100013.50;4357601;32;32563;-78
2022/08/11 05:37:00;;;;;;;;;;;;;;;28.24;30.41;100039.63;4441450;32;33724;-81
2022/08/11 05:57:01;;;;;;;;;;;;;;;27.54;30.01;100037.25;4477480;31;32625;-79
2022/08/11 05:59:30;;;;;;;;;;;;;;;27.75;30.38;100034.72;4473266;31;34058;-81
2022/08/11 06:02:00;;;;;;;;;;;;;;;27.91;30.12;100043.22;4469257;31;34110;-79
2022/08/11 06:04:29;;;;;;;;;;;;;;;27.64;30.28;100048.88;4477368;32;33329;-81
2022/08/11 06:06:58;;;;;;;;;;;;;;;27.17;30.53;100042.75;4469423;32;33387;-80
2022/08/11 06:09:27;;;;;;;;;;;;;;;27.44;30.53;100037.97;4470104;32;33714;-79
2022/08/11 06:11:58;;;;;;;;;;;;;;;27.02;31.34;100045.62;4467875;32;33368;-80
2022/08/11 06:14:27;;;;;;;;;;;;;;;27.28;30.91;100037.50;4476023;31;33111;-81
2022/08/11 06:16:57;;;;;;;;;;;;;;;27.22;30.89;100040.63;4469255;31;34828;-80
2022/08/11 06:19:31;;;;;;;;;;;;;;;27.06;31.24;100043.56;4472295;32;34417;-78
2022/08/11 06:22:00;;;;;;;;;;;;;;;26.93;31.78;100040.16;4470709;32;34476;-80
2022/08/11 06:24:31;;;;;;;;;;;;;;;26.65;31.71;100044.91;4483413;32;33169;-80
2022/08/11 06:27:05;;;;;;;;;;;;;;;26.76;31.48;100039.59;4481973;32;34042;-79
2022/08/11 06:29:46;;;;;;;;;;;;;;;26.46;32.20;100036.53;4478701;32;34241;-79
2022/08/11 06:32:26;;;;;;;;;;;;;;;25.91;32.98;100036.09;4475995;32;33850;-80
2022/08/11 06:35:08;;;;;;;;;;;;;;;26.05;32.00;100040.44;4472773;32;33308;-78
2022/08/11 06:37:48;;;;;;;;;;;;;;;26.56;31.55;100033.13;4467974;32;33887;-80
2022/08/11 06:40:28;;;;;;;;;;;;;;;26.54;32.33;100039.53;4469820;32;34174;-78
2022/08/11 06:43:01;;;;;;;;;;;;;;;26.59;31.77;100032.88;4477193;32;33457;-80
2022/08/11 06:45:31;;;;;;;;;;;;;;;27.04;31.78;100029.53;4471380;32;32804;-79
2022/08/11 06:47:59;;;;;;;;;;;;;;;27.08;30.80;100030.13;4463166;32;33966;-80
2022/08/11 06:53:16;;;;;;;;;;;;;;;26.79;31.21;100042.03;4462270;32;34588;-79
2022/08/11 07:01:24;;;;;;;;;;;;;;;26.93;30.44;100034.81;4482905;32;33997;-80
2022/08/11 07:03:56;;;;;;;;;;;;;;;26.79;31.37;100030.53;4474658;32;33576;-80
2022/08/11 07:06:31;;;;;;;;;;;;;;;26.61;30.42;100027.47;4476279;32;32361;-80
2022/08/11 07:30:19;;;;;;;;;;;;;;;26.50;29.21;100022.03;4428482;32;32963;-81
2022/08/11 07:32:49;;;;;;;;;;;;;;;26.84;30.01;100014.22;4428412;32;33880;-80
2022/08/11 07:35:17;;;;;;;;;;;;;;;26.99;29.48;100019.25;4433236;32;34496;-80
2022/08/11 07:37:47;;;;;;;;;;;;;;;26.80;29.12;100018.94;4423507;32;34651;-80
2022/08/11 07:40:29;;;;;;;;;;;;;;;26.90;29.39;100013.78;4428011;32;33674;-79
2022/08/11 07:42:57;;;;;;;;;;;;;;;26.75;29.99;100019.28;4427272;32;34970;-79
2022/08/11 07:53:45;;;;;;;;;;;;;;;26.64;28.91;100013.91;4432803;32;34206;-79
2022/08/11 07:56:34;;;;;;;;;;;;;;;27.11;29.13;100006.81;4473018;32;34803;-81
2022/08/11 08:19:26;;;;;;;;;;;;;;;26.74;27.81;99996.28;4474012;32;35094;-79
2022/08/11 08:21:55;;;;;;;;;;;;;;;27.01;27.78;99995.13;4475773;32;33130;-80
2022/08/11 08:24:43;;;;;;;;;;;;;;;27.31;27.40;99999.09;4480841;32;33919;-80
2022/08/11 08:27:13;;;;;;;;;;;;;;;27.46;27.19;100000.56;4461306;32;34834;-79
2022/08/11 08:32:27;;;;;;;;;;;;;;;27.41;27.81;99998.25;4463516;32;34033;-79
2022/08/11 08:34:57;;;;;;;;;;;;;;;26.98;28.68;99996.22;4463583;32;33757;-79
2022/08/11 08:37:26;;;;;;;;;;;;;;;26.81;29.10;99996.66;4461370;32;34607;-79
2022/08/11 08:40:15;;;;;;;;;;;;;;;26.91;29.23;99996.81;4460858;32;33512;-79
2022/08/11 08:42:46;;;;;;;;;;;;;;;27.22;29.50;99990.84;4472791;32;33983;-80
2022/08/11 08:45:17;;;;;;;;;;;;;;;27.45;29.12;99997.06;4476856;32;32999;-79
2022/08/11 08:47:47;;;;;;;;;;;;;;;27.32;28.67;99987.47;4477277;32;33227;-79
2022/08/11 08:50:22;;;;;;;;;;;;;;;27.20;29.39;99984.78;4476388;32;34187;-81
2022/08/11 08:52:58;;;;;;;;;;;;;;;27.21;29.22;99981.19;4477405;32;33812;-79
2022/08/11 08:55:27;;;;;;;;;;;;;;;27.54;27.41;99981.28;4483242;32;33143;-81
2022/08/11 08:57:59;;;;;;;;;;;;;;;27.11;27.80;99985.50;4481304;32;34034;-79
2022/08/11 09:00:29;;;;;;;;;;;;;;;27.28;28.20;99986.00;4479566;32;34775;-80
2022/08/11 09:02:57;;;;;;;;;;;;;;;26.44;28.74;99983.44;4470694;32;34225;-79
2022/08/11 09:05:27;;;;;;;;;;;;;;;27.08;28.35;99979.53;4463076;32;33021;-79
2022/08/11 09:07:56;;;;;;;;;;;;;;;27.02;28.59;99984.38;4462838;32;33797;-79
2022/08/11 09:10:25;;;;;;;;;;;;;;;26.86;29.32;99972.38;4468187;32;34743;-79
2022/08/11 09:12:54;;;;;;;;;;;;;;;26.67;29.37;99979.06;4470162;32;34614;-80
2022/08/11 09:15:22;;;;;;;;;;;;;;;26.98;29.21;99968.75;4478642;32;33245;-79
2022/08/11 09:17:52;;;;;;;;;;;;;;;27.17;28.36;99971.69;4479128;32;34363;-81
2022/08/11 09:20:21;;;;;;;;;;;;;;;26.91;29.13;99975.53;4478583;32;34233;-79
2022/08/11 09:28:44;;;;;;;;;;;;;;;27.28;28.49;99962.91;4468003;32;34017;-80
2022/08/11 09:31:13;;;;;;;;;;;;;;;27.35;28.06;99958.78;4476974;32;33720;-80
2022/08/11 09:33:41;;;;;;;;;;;;;;;27.10;28.59;99961.63;4466670;32;33383;-79
2022/08/11 09:41:45;;;;;;;;;;;;;;;28.28;27.47;99944.19;4463005;32;34019;-79
2022/08/11 09:44:47;;;;;;;;;;;;;;;27.83;27.37;99950.50;4468151;32;34167;-80
2022/08/11 09:47:18;;;;;;;;;;;;;;;27.78;27.00;99943.81;4468136;32;33028;-79
2022/08/11 09:49:47;;;;;;;;;;;;;;;27.75;26.41;99946.75;4473698;32;33113;-81
2022/08/11 09:52:17;;;;;;;;;;;;;;;28.18;25.58;99943.28;4475863;32;33744;-79
2022/08/11 09:54:48;;;;;;;;;;;;;;;28.06;25.25;99935.31;4467327;32;34425;-81
2022/08/11 10:00:08;;;;;;;;;;;;;;;28.27;23.90;99931.81;4483473;32;33898;-79
2022/08/11 10:02:42;;;;;;;;;;;;;;;28.12;23.37;99933.09;4463779;32;34902;-79
2022/08/11 10:07:57;;;;;;;;;;;;;;;28.92;22.12;99924.56;4478146;32;34136;-79
2022/08/11 10:10:27;;;;;;;;;;;;;;;29.04;21.58;99917.31;4478150;32;34114;-80
2022/08/11 10:12:56;;;;;;;;;;;;;;;29.43;21.71;99915.69;4478006;32;33762;-82
2022/08/11 10:15:33;;;;;;;;;;;;;;;29.23;22.72;99922.78;4473083;32;34313;-80
2022/08/11 10:20:50;;;;;;;;;;;;;;;29.56;22.89;99926.13;4462840;32;34278;-80
2022/08/11 10:26:53;;;;;;;;;;;;;;;28.89;22.87;99914.16;4478094;32;33917;-79
2022/08/11 10:35:08;;;;;;;;;;;;;;;29.52;22.30;99897.97;4463751;32;34392;-79
2022/08/11 10:37:36;;;;;;;;;;;;;;;29.17;24.10;99896.63;4462802;32;33681;-80
2022/08/11 10:40:25;;;;;;;;;;;;;;;29.48;23.60;99899.22;4463559;32;32809;-79
2022/08/11 10:43:05;;;;;;;;;;;;;;;29.76;23.41;99882.44;4472612;32;34242;-80
2022/08/11 10:48:21;;;;;;;;;;;;;;;29.80;22.79;99885.69;4469552;32;34771;-80
2022/08/11 10:59:10;;;;;;;;;;;;;;;30.23;21.43;99880.91;4462376;32;34759;-79
2022/08/11 11:01:40;;;;;;;;;;;;;;;30.10;20.08;99871.31;4476870;32;32914;-79
2022/08/11 11:04:10;;;;;;;;;;;;;;;30.50;19.67;99873.03;4477801;32;34292;-80
2022/08/11 11:06:43;;;;;;;;;;;;;;;30.63;19.48;99868.19;4466451;32;34948;-80
2022/08/11 11:09:13;;;;;;;;;;;;;;;30.60;19.94;99873.00;4462316;32;33455;-80
2022/08/11 11:20:17;;;;;;;;;;;;;;;30.11;20.90;99856.16;4468843;32;33672;-79
2022/08/11 11:23:07;;;;;;;;;;;;;;;30.13;20.02;99854.13;4466290;32;32140;-81
2022/08/11 11:25:37;;;;;;;;;;;;;;;30.31;21.08;99843.59;4469131;32;34546;-80
2022/08/11 11:28:28;;;;;;;;;;;;;;;30.27;18.43;99842.19;4473561;32;33489;-80
2022/08/11 11:31:01;;;;;;;;;;;;;;;30.51;18.75;99839.88;4476238;31;34761;-78
2022/08/11 11:33:35;;;;;;;;;;;;;;;30.17;19.00;99837.66;4476200;32;33462;-80
2022/08/11 11:36:25;;;;;;;;;;;;;;;30.15;18.82;99841.47;4474543;32;33960;-80
2022/08/11 11:38:55;;;;;;;;;;;;;;;29.87;19.47;99846.72;4477399;31;34489;-79
2022/08/11 11:41:26;;;;;;;;;;;;;;;29.77;19.31;99832.50;4464408;32;34473;-80
2022/08/11 11:43:57;;;;;;;;;;;;;;;29.99;19.86;99832.19;4462970;32;32611;-81
2022/08/11 11:46:30;;;;;;;;;;;;;;;29.78;20.09;99834.16;4469230;32;34027;-80
2022/08/11 11:49:08;;;;;;;;;;;;;;;29.96;20.08;99834.28;4466486;32;34382;-81
2022/08/11 11:51:44;;;;;;;;;;;;;;;30.09;19.72;99826.84;4462572;32;32991;-82
2022/08/11 11:54:17;;;;;;;;;;;;;;;30.02;20.04;99825.72;4483685;32;33821;-80
2022/08/11 11:56:45;;;;;;;;;;;;;;;30.62;18.39;99820.16;4477410;32;35171;-82
2022/08/11 12:02:02;;;;;;;;;;;;;;;30.47;19.49;99813.53;4469531;32;33770;-81
2022/08/11 12:04:40;;;;;;;;;;;;;;;30.75;19.44;99823.31;4473367;32;33532;-80
2022/08/11 12:09:51;;;;;;;;;;;;;;;30.90;19.30;99814.84;4445513;32;33471;-80
2022/08/11 12:15:06;;;;;;;;;;;;;;;30.31;19.47;99800.78;4472298;32;33932;-80
2022/08/11 12:17:36;;;;;;;;;;;;;;;30.48;19.32;99796.50;4467959;32;33649;-81
2022/08/11 12:20:06;;;;;;;;;;;;;;;30.80;18.73;99796.94;4471496;32;34937;-79
2022/08/11 12:28:48;;;;;;;;;;;;;;;30.44;18.81;99781.72;4474491;32;34925;-80
2022/08/11 12:31:20;;;;;;;;;;;;;;;30.04;20.03;99797.00;4479130;32;33930;-81
2022/08/11 12:33:50;;;;;;;;;;;;;;;29.76;20.30;99783.50;4483926;32;33490;-79
2022/08/11 12:36:21;;;;;;;;;;;;;;;29.58;20.86;99785.16;4478774;32;34506;-81
2022/08/11 12:38:49;;;;;;;;;;;;;;;30.15;20.49;99782.59;4470974;32;33550;-80
2022/08/11 12:46:54;;;;;;;;;;;;;;;30.54;19.84;99771.81;4470903;32;33253;-80
2022/08/11 12:52:14;;;;;;;;;;;;;;;30.62;19.69;99786.16;4452257;32;35065;-79
2022/08/11 12:54:45;;;;;;;;;;;;;;;30.58;19.82;99778.56;4470463;32;34356;-81
2022/08/11 13:05:42;;;;;;;;;;;;;;;30.19;21.06;99768.78;4468974;32;33948;-80
2022/08/11 13:08:13;;;;;;;;;;;;;;;30.66;20.43;99762.59;4476716;32;32917;-79
2022/08/11 13:13:29;;;;;;;;;;;;;;;31.30;19.96;99763.56;4476605;32;34353;-81
2022/08/11 13:16:17;;;;;;;;;;;;;;;31.34;19.53;99767.63;4474811;32;33436;-80
2022/08/11 13:18:46;;;;;;;;;;;;;;;31.25;19.50;99761.34;4473131;32;32835;-82
2022/08/11 13:21:15;;;;;;;;;;;;;;;31.52;19.00;99758.78;4470705;32;34840;-81
2022/08/11 13:23:49;;;;;;;;;;;;;;;31.57;18.79;99743.06;4481666;32;34626;-81
2022/08/11 13:26:36;;;;;;;;;;;;;;;31.72;19.33;99741.50;4482442;32;34597;-80
2022/08/11 13:29:17;;;;;;;;;;;;;;;31.48;19.70;99746.66;4476617;32;33924;-80
2022/08/11 13:31:45;;;;;;;;;;;;;;;31.38;19.43;99744.88;4475106;32;34005;-82
2022/08/11 13:34:14;;;;;;;;;;;;;;;31.68;19.45;99740.16;4471352;32;35242;-80
2022/08/11 13:36:45;;;;;;;;;;;;;;;30.38;20.33;99740.34;4461304;32;33415;-80
2022/08/11 13:39:13;;;;;;;;;;;;;;;31.09;19.97;99742.37;4467728;32;33139;-81
2022/08/11 13:41:43;;;;;;;;;;;;;;;31.28;19.91;99738.75;4469802;32;34602;-81
2022/08/11 13:44:13;;;;;;;;;;;;;;;31.02;20.11;99744.81;4478613;32;34266;-81
2022/08/11 13:46:46;;;;;;;;;;;;;;;30.70;20.53;99736.38;4468999;32;33623;-80
2022/08/11 13:49:18;;;;;;;;;;;;;;;31.09;19.89;99733.50;4463218;32;33422;-81
2022/08/11 13:51:48;;;;;;;;;;;;;;;30.60;21.07;99731.09;4463386;32;35726;-81
2022/08/11 13:54:17;;;;;;;;;;;;;;;31.40;20.49;99728.66;4468537;32;32870;-80
2022/08/11 13:56:47;;;;;;;;;;;;;;;30.96;20.83;99718.66;4466076;32;33727;-80
2022/08/11 13:59:19;;;;;;;;;;;;;;;31.13;21.34;99725.03;4462635;32;33613;-82
2022/08/11 14:01:52;;;;;;;;;;;;;;;30.66;21.91;99732.31;4473339;32;33769;-80
2022/08/11 14:04:41;;;;;;;;;;;;;;;30.24;22.03;99724.72;4478441;32;34307;-80
2022/08/11 14:07:13;;;;;;;;;;;;;;;30.32;22.14;99723.00;4472398;31;34500;-80
2022/08/11 14:09:42;;;;;;;;;;;;;;;30.11;22.42;99728.56;4474754;32;35570;-80
2022/08/11 14:15:00;;;;;;;;;;;;;;;29.72;23.07;99733.09;4469330;32;35078;-80
2022/08/11 14:17:35;;;;;;;;;;;;;;;29.74;22.99;99729.34;4467494;32;33380;-79
2022/08/11 14:20:17;;;;;;;;;;;;;;;29.95;23.01;99718.44;4474884;32;32718;-80
2022/08/11 14:23:05;;;;;;;;;;;;;;;30.32;22.27;99717.66;4475169;32;33426;-80
2022/08/11 14:25:34;;;;;;;;;;;;;;;30.55;21.84;99720.81;4473621;32;34668;-80
2022/08/11 14:28:22;;;;;;;;;;;;;;;30.05;22.93;99721.09;4483776;32;33460;-81
2022/08/11 14:31:00;;;;;;;;;;;;;;;30.50;22.88;99722.25;4463220;32;32788;-81
2022/08/11 14:33:29;;;;;;;;;;;;;;;30.08;22.89;99714.59;4475211;32;34336;-79
2022/08/11 14:36:17;;;;;;;;;;;;;;;30.03;22.93;99723.06;4474214;32;35056;-80
2022/08/11 14:38:47;;;;;;;;;;;;;;;29.63;23.46;99725.94;4473295;32;33736;-79
2022/08/11 14:47:07;;;;;;;;;;;;;;;29.22;23.97;99715.38;4470527;32;34238;-79
2022/08/11 14:49:53;;;;;;;;;;;;;;;29.30;23.96;99707.50;4465737;32;33405;-80
2022/08/11 14:52:37;;;;;;;;;;;;;;;29.69;23.66;99714.69;4472121;32;33159;-80
2022/08/11 14:57:54;;;;;;;;;;;;;;;29.09;24.24;99715.66;4469418;32;33757;-81
2022/08/11 15:00:24;;;;;;;;;;;;;;;29.88;23.62;99703.13;4459388;31;33781;-80
2022/08/11 15:03:10;;;;;;;;;;;;;;;29.25;23.75;99709.75;4461698;32;33108;-79
2022/08/11 15:05:42;;;;;;;;;;;;;;;29.38;23.48;99704.09;4456671;32;33434;-80
2022/08/11 15:12:07;;;;;;;;;;;;;;;30.11;22.79;99706.31;4462744;32;35562;-79
2022/08/11 15:14:01;;;;;;;;;;;;;;;29.17;23.90;99703.44;4465426;32;32859;-78
2022/08/11 15:19:12;;;;;;;;;;;;;;;30.12;23.30;99699.97;4450488;31;34977;-79
2022/08/11 15:24:27;;;;;;;;;;;;;;;30.17;23.09;99706.56;4475286;32;34501;-80
2022/08/11 15:38:11;;;;;;;;;;;;;;;29.66;22.67;99698.91;4466570;32;34219;-79
2022/08/11 15:46:17;;;;;;;;;;;;;;;29.81;22.33;99696.66;4471840;32;33219;-79
2022/08/11 15:48:48;;;;;;;;;;;;;;;30.00;22.54;99693.94;4470913;32;33974;-79
2022/08/11 15:51:21;;;;;;;;;;;;;;;29.59;22.52;99689.75;4470252;32;34926;-79
2022/08/11 15:53:53;;;;;;;;;;;;;;;29.65;22.46;99687.38;4459720;32;33170;-80
2022/08/11 15:56:25;;;;;;;;;;;;;;;29.18;22.36;99692.56;4476865;32;33411;-80
2022/08/11 16:04:54;;;;;;;;;;;;;;;28.55;23.56;99684.00;4403493;32;34455;-80
2022/08/11 16:07:25;;;;;;;;;;;;;;;29.06;22.85;99685.66;4398529;32;34082;-80
2022/08/11 16:09:58;;;;;;;;;;;;;;;29.33;22.51;99688.53;4400151;32;34684;-80
2022/08/11 16:12:32;;;;;;;;;;;;;;;29.17;22.37;99685.56;4400646;32;33496;-81
2022/08/11 16:17:52;;;;;;;;;;;;;;;28.66;22.77;99678.56;4405518;32;33333;-78
2022/08/11 16:20:21;;;;;;;;;;;;;;;28.69;23.10;99680.94;4407660;32;33656;-79
2022/08/11 16:22:51;;;;;;;;;;;;;;;29.04;22.62;99680.44;4396332;32;33722;-79
2022/08/11 16:25:30;;;;;;;;;;;;;;;29.08;22.46;99675.72;4401094;32;34637;-79
2022/08/11 16:28:19;;;;;;;;;;;;;;;28.86;22.48;99682.13;4400836;32;33041;-78
2022/08/11 16:30:51;;;;;;;;;;;;;;;28.42;23.20;99684.22;4399908;32;33628;-79
2022/08/11 16:33:23;;;;;;;;;;;;;;;28.71;22.96;99681.66;4410188;32;34785;-81
2022/08/11 16:38:58;;;;;;;;;;;;;;;28.64;23.04;99678.69;4456952;32;32191;-79
2022/08/11 16:47:08;;;;;;;;;;;;;;;28.40;23.71;99676.34;4455511;32;32015;-80
2022/08/11 16:49:36;;;;;;;;;;;;;;;27.98;24.58;99680.91;4466546;32;33272;-80
2022/08/11 16:52:10;;;;;;;;;;;;;;;28.07;25.11;99675.63;4466616;31;33647;-80
2022/08/11 16:54:40;;;;;;;;;;;;;;;28.05;25.47;99674.94;4467388;32;34270;-80
2022/08/11 17:00:00;;;;;;;;;;;;;;;28.23;25.69;99676.97;4391659;32;32759;-79
2022/08/11 17:14:10;;;;;;;;;;;;;;;28.16;25.99;99673.97;4379723;32;34515;-80
2022/08/11 17:16:39;;;;;;;;;;;;;;;27.70;26.81;99674.41;4379682;32;34698;-81
2022/08/11 17:19:10;;;;;;;;;;;;;;;27.97;26.58;99671.22;4382465;32;33747;-79
2022/08/11 17:23:45;;;;;;;;;;;;;;;27.86;26.73;99678.31;4382431;32;32658;-81
2022/08/11 17:24:27;;;;;;;;;;;;;;;27.72;26.83;99675.13;4378460;32;33810;-81
2022/08/11 17:26:57;;;;;;;;;;;;;;;27.72;27.03;99677.78;4381149;32;32959;-81
2022/08/11 17:29:27;;;;;;;;;;;;;;;27.36;27.59;99669.25;4380495;32;34413;-79
2022/08/11 17:37:32;;;;;;;;;;;;;;;26.44;29.64;99711.28;4401407;32;34324;-80
2022/08/11 17:40:04;;;;;;;;;;;;;;;26.22;30.40;99702.31;4423420;32;34004;-80
2022/08/11 17:50:54;;;;;;;;;;;;;;;25.30;32.65;99718.09;4475585;32;34845;-78
2022/08/11 18:04:49;;;;;;;;;;;;;;;25.26;33.00;99721.09;4476051;32;32804;-79
